Time;durP1;ratioP1;P1;durP2;ratioP2;P2;SDS_P1;SDS_P2;PMS_P1;PMS_P2;Temp;Humidity;BMP_temperature;BMP_pressure;BME280_temperature;BME280_humidity;BME280_pressure;Samples;Min_cycle;Max_cycle;Signal;HPM_P1;HPM_P2
2024/03/11 00:01:06;;;;;;;25.35;13.55;;;;;;;10.65;100.00;100052.75;5098113;28;20036;-64
2024/03/11 00:03:33;;;;;;;26.45;14.50;;;;;;;10.46;100.00;100056.41;5098810;28;20051;-64
2024/03/11 00:05:59;;;;;;;27.25;14.70;;;;;;;10.30;100.00;100061.56;5098079;28;20471;-64
2024/03/11 00:08:25;;;;;;;29.55;14.75;;;;;;;10.50;100.00;100060.41;5098133;28;20519;-64
2024/03/11 00:11:01;;;;;;;27.65;13.55;;;;;;;10.76;100.00;100063.09;5097763;28;20043;-64
2024/03/11 00:13:33;;;;;;;23.83;13.27;;;;;;;10.87;100.00;100060.19;5098001;28;20107;-67
2024/03/11 00:16:02;;;;;;;21.48;12.50;;;;;;;10.82;100.00;100054.53;5097748;28;20032;-66
2024/03/11 00:18:28;;;;;;;23.02;12.35;;;;;;;10.59;100.00;100034.84;5097397;28;20071;-64
2024/03/11 00:20:56;;;;;;;19.95;12.07;;;;;;;10.05;100.00;100028.72;5097556;28;20034;-64
2024/03/11 00:23:21;;;;;;;24.13;14.27;;;;;;;10.03;100.00;100022.75;5097468;28;20042;-64
2024/03/11 00:25:47;;;;;;;23.35;12.93;;;;;;;10.10;100.00;100022.97;5097194;28;20032;-66
2024/03/11 00:28:12;;;;;;;24.05;11.93;;;;;;;9.84;100.00;100022.91;5096191;28;20031;-64
2024/03/11 00:30:38;;;;;;;24.95;12.93;;;;;;;9.55;100.00;100012.53;5096534;28;20044;-64
2024/03/11 00:33:06;;;;;;;22.17;12.38;;;;;;;9.48;100.00;100004.34;5094808;28;20342;-64
2024/03/11 00:35:32;;;;;;;26.73;12.85;;;;;;;9.42;100.00;100009.41;5096454;28;20031;-64
2024/03/11 00:37:58;;;;;;;26.70;13.70;;;;;;;9.55;100.00;100018.63;5096541;28;20074;-65
2024/03/11 00:40:23;;;;;;;26.05;14.10;;;;;;;9.74;100.00;100019.50;5097542;28;20268;-64
2024/03/11 00:42:51;;;;;;;30.13;15.27;;;;;;;9.32;100.00;100008.59;5098184;28;20036;-66
2024/03/11 00:45:18;;;;;;;30.50;15.63;;;;;;;9.27;100.00;100011.69;5095477;28;20319;-66
2024/03/11 00:47:45;;;;;;;29.05;15.73;;;;;;;9.23;100.00;100008.50;5097765;28;20385;-64
2024/03/11 00:50:12;;;;;;;37.10;16.63;;;;;;;9.27;100.00;100020.44;5095854;28;20137;-64
2024/03/11 00:52:42;;;;;;;28.77;14.25;;;;;;;9.39;100.00;100031.69;5098442;28;20032;-64
2024/03/11 00:55:09;;;;;;;29.75;16.38;;;;;;;9.34;100.00;100023.31;5097086;28;20119;-67
2024/03/11 00:57:35;;;;;;;31.00;16.08;;;;;;;9.19;100.00;100016.88;5097286;28;20594;-64
2024/03/11 01:00:05;;;;;;;30.95;15.70;;;;;;;9.14;100.00;100012.03;5093960;28;20032;-64
2024/03/11 01:02:33;;;;;;;37.25;16.58;;;;;;;9.18;100.00;100012.56;5096575;28;20067;-65
2024/03/11 01:04:59;;;;;;;26.85;14.73;;;;;;;9.21;100.00;100007.81;5095908;28;20625;-64
2024/03/11 01:07:25;;;;;;;36.58;16.17;;;;;;;9.16;100.00;99996.03;5095318;28;20724;-64
2024/03/11 01:09:51;;;;;;;31.02;15.38;;;;;;;9.13;100.00;99988.41;5096671;28;20036;-64
2024/03/11 01:12:16;;;;;;;30.83;13.73;;;;;;;8.91;100.00;99989.59;5096405;28;20051;-66
2024/03/11 01:14:42;;;;;;;34.33;17.00;;;;;;;8.81;100.00;99984.34;5096111;28;20459;-66
2024/03/11 01:17:07;;;;;;;33.78;15.68;;;;;;;9.02;100.00;99991.22;5096848;28;20036;-64
2024/03/11 01:19:33;;;;;;;28.67;15.20;;;;;;;9.18;100.00;99994.91;5096775;28;20088;-64
2024/03/11 01:21:59;;;;;;;33.50;16.67;;;;;;;9.40;100.00;100001.63;5095392;28;20036;-66
2024/03/11 01:24:27;;;;;;;26.48;14.88;;;;;;;9.52;100.00;100005.72;5096355;28;20326;-66
2024/03/11 01:26:55;;;;;;;28.00;15.57;;;;;;;9.65;100.00;100013.28;5093197;28;20032;-64
2024/03/11 01:29:21;;;;;;;29.98;15.90;;;;;;;9.80;100.00;100018.88;5096932;28;20099;-64
2024/03/11 01:31:46;;;;;;;31.15;15.43;;;;;;;9.92;100.00;100021.16;5096177;28;20337;-64
2024/03/11 01:34:13;;;;;;;27.88;15.32;;;;;;;10.18;100.00;100012.47;5096824;28;20048;-64
2024/03/11 01:36:39;;;;;;;32.60;16.23;;;;;;;10.38;100.00;100015.78;5096082;28;20057;-64
2024/03/11 01:39:08;;;;;;;27.40;15.35;;;;;;;10.53;100.00;100024.88;5096995;28;20059;-64
2024/03/11 01:41:36;;;;;;;33.67;16.02;;;;;;;10.71;100.00;100030.94;5097243;28;20246;-67
2024/03/11 01:44:02;;;;;;;28.05;15.02;;;;;;;10.76;100.00;100043.72;5097851;28;20028;-64
2024/03/11 01:46:27;;;;;;;29.08;15.10;;;;;;;10.64;100.00;100037.00;5096073;28;20109;-64
2024/03/11 01:48:53;;;;;;;32.58;15.63;;;;;;;10.82;100.00;100051.88;5096793;28;20077;-64
2024/03/11 01:51:21;;;;;;;36.33;18.05;;;;;;;10.92;100.00;100054.41;5096989;28;20202;-66
2024/03/11 01:53:47;;;;;;;26.35;14.68;;;;;;;10.94;100.00;100048.97;5096985;28;20095;-66
2024/03/11 01:56:14;;;;;;;30.10;14.70;;;;;;;10.85;100.00;100050.72;5096020;28;20077;-64
2024/03/11 01:58:43;;;;;;;32.00;16.35;;;;;;;10.72;100.00;100050.31;5093428;28;20265;-64
2024/03/11 02:01:10;;;;;;;35.88;17.17;;;;;;;10.85;100.00;100051.56;5095355;28;20047;-64
2024/03/11 02:03:36;;;;;;;29.08;14.90;;;;;;;10.95;100.00;100048.81;5093187;28;20063;-64
2024/03/11 02:06:02;;;;;;;31.52;15.65;;;;;;;10.76;100.00;100051.66;5095323;28;20345;-64
2024/03/11 02:08:27;;;;;;;33.03;16.13;;;;;;;10.88;100.00;100040.66;5093833;28;20052;-66
2024/03/11 02:10:53;;;;;;;27.00;14.43;;;;;;;11.01;100.00;100045.53;5095532;28;20040;-66
2024/03/11 02:13:20;;;;;;;27.98;14.60;;;;;;;11.09;100.00;100048.22;5094647;28;20338;-64
2024/03/11 02:15:47;;;;;;;26.42;15.45;;;;;;;11.10;100.00;100031.31;5095135;28;20085;-64
2024/03/11 02:18:13;;;;;;;26.98;14.35;;;;;;;11.20;100.00;100037.34;5095081;28;20289;-64
2024/03/11 02:20:41;;;;;;;27.60;14.95;;;;;;;11.17;100.00;100032.34;5097826;28;20035;-66
2024/03/11 02:23:07;;;;;;;23.02;13.82;;;;;;;11.19;100.00;100032.19;5098618;28;20032;-65
2024/03/11 02:25:33;;;;;;;26.23;13.75;;;;;;;11.24;100.00;100031.72;5097438;28;20042;-64
2024/03/11 02:28:00;;;;;;;25.88;14.77;;;;;;;11.20;100.00;100018.78;5099551;28;20047;-64
2024/03/11 02:30:27;;;;;;;27.83;14.93;;;;;;;11.06;100.00;100024.69;5098659;28;20260;-64
2024/03/11 02:32:53;;;;;;;29.30;14.98;;;;;;;10.96;100.00;100009.88;5099231;28;20130;-64
2024/03/11 02:35:18;;;;;;;29.35;14.80;;;;;;;10.96;100.00;100015.19;5098466;28;20093;-64
2024/03/11 02:37:45;;;;;;;26.25;14.88;;;;;;;10.98;100.00;100008.75;5100502;28;20032;-66
2024/03/11 02:40:11;;;;;;;26.42;14.80;;;;;;;11.03;100.00;100013.56;5098981;28;20494;-66
2024/03/11 02:42:37;;;;;;;28.83;16.73;;;;;;;11.03;100.00;100018.88;5100646;28;20040;-64
2024/03/11 02:45:11;;;;;;;27.73;16.17;;;;;;;10.98;100.00;100018.50;5099171;28;20089;-64
2024/03/11 02:47:37;;;;;;;;;;;;;;;10.92;100.00;100000.59;5101289;28;20024;-67
2024/03/11 02:50:05;;;;;;;25.85;14.40;;;;;;;11.04;100.00;100025.81;5099960;28;20194;-66
2024/03/11 02:52:36;;;;;;;27.83;15.18;;;;;;;11.10;100.00;100017.25;5100303;28;20226;-64
2024/03/11 02:55:02;;;;;;;24.55;14.50;;;;;;;11.15;100.00;100013.13;5099409;28;20386;-65
2024/03/11 02:57:29;;;;;;;26.42;16.38;;;;;;;11.23;100.00;100019.44;5100343;28;20039;-64
2024/03/11 02:59:54;;;;;;;33.35;16.88;;;;;;;11.30;100.00;100018.66;5098865;28;20341;-64
2024/03/11 03:02:20;;;;;;;27.23;14.73;;;;;;;11.36;100.00;100011.88;5099578;28;20039;-64
2024/03/11 03:04:46;;;;;;;26.25;15.25;;;;;;;11.31;100.00;100001.75;5099051;28;20047;-67
2024/03/11 03:07:16;;;;;;;30.27;15.07;;;;;;;11.29;100.00;100011.69;5099249;28;20051;-66
2024/03/11 03:09:42;;;;;;;27.77;14.75;;;;;;;11.26;100.00;99990.81;5099589;28;20566;-64
2024/03/11 03:12:09;;;;;;;28.65;14.55;;;;;;;11.19;100.00;99995.91;5098967;28;20062;-64
2024/03/11 03:14:37;;;;;;;33.28;15.75;;;;;;;11.01;100.00;100002.28;5100588;28;20043;-65
2024/03/11 03:17:04;;;;;;;29.42;15.98;;;;;;;10.76;100.00;99998.69;5097778;28;20082;-66
2024/03/11 03:19:29;;;;;;;32.60;15.43;;;;;;;9.99;100.00;99986.16;5100407;28;20119;-66
2024/03/11 03:21:55;;;;;;;29.23;14.55;;;;;;;9.77;100.00;99985.66;5097228;28;20046;-64
2024/03/11 03:24:21;;;;;;;29.40;16.00;;;;;;;9.64;100.00;99987.00;5099902;28;20032;-64
2024/03/11 03:26:47;;;;;;;35.53;17.65;;;;;;;9.80;100.00;99984.50;5098774;28;20366;-64
2024/03/11 03:29:12;;;;;;;30.70;16.23;;;;;;;9.85;100.00;99988.38;5099350;28;20040;-64
2024/03/11 03:31:37;;;;;;;29.35;16.38;;;;;;;9.73;100.00;99986.94;5098585;28;20036;-65
2024/03/11 03:34:06;;;;;;;31.75;15.32;;;;;;;9.93;100.00;99991.09;5098938;28;20265;-64
2024/03/11 03:36:32;;;;;;;33.25;17.52;;;;;;;10.15;100.00;99995.06;5098997;28;20031;-66
2024/03/11 03:38:57;;;;;;;28.15;15.82;;;;;;;10.36;100.00;99999.22;5098747;28;20036;-66
2024/03/11 03:41:23;;;;;;;35.08;17.75;;;;;;;10.54;100.00;100010.63;5097572;28;20036;-64
2024/03/11 03:43:49;;;;;;;27.63;15.48;;;;;;;10.63;100.00;100006.22;5099086;28;20044;-64
2024/03/11 03:46:17;;;;;;;31.05;15.80;;;;;;;10.78;100.00;100013.44;5098548;28;20071;-65
2024/03/11 03:48:43;;;;;;;30.00;16.20;;;;;;;10.90;100.00;100013.16;5098434;28;20116;-66
2024/03/11 03:51:08;;;;;;;30.40;15.65;;;;;;;10.90;100.00;100008.69;5098540;28;20032;-64
2024/03/11 03:53:34;;;;;;;26.35;15.25;;;;;;;11.00;100.00;100019.19;5097671;28;20107;-64
2024/03/11 03:55:59;;;;;;;30.20;15.85;;;;;;;11.05;100.00;100028.31;5099093;28;20101;-64
2024/03/11 03:58:25;;;;;;;27.95;14.55;;;;;;;11.06;100.00;100026.50;5096529;28;20047;-64
2024/03/11 04:00:50;;;;;;;28.15;15.23;;;;;;;11.15;100.00;100028.19;5099100;28;20024;-64
2024/03/11 04:03:18;;;;;;;39.72;19.50;;;;;;;11.22;100.00;100013.31;5097274;28;20043;-64
2024/03/11 04:05:48;;;;;;;29.45;17.00;;;;;;;10.95;100.00;100005.56;5098782;28;20028;-66
2024/03/11 04:08:16;;;;;;;29.00;16.35;;;;;;;10.90;100.00;100008.69;5097096;28;20149;-66
2024/03/11 04:10:42;;;;;;;31.20;17.00;;;;;;;10.87;100.00;100009.00;5098368;28;20095;-64
2024/03/11 04:13:08;;;;;;;34.72;17.98;;;;;;;10.97;100.00;100019.50;5098048;28;20040;-65
2024/03/11 04:15:33;;;;;;;33.90;17.83;;;;;;;11.01;100.00;100008.44;5098136;28;20028;-65
2024/03/11 04:18:05;;;;;;;30.67;16.27;;;;;;;11.00;100.00;100005.94;5098099;28;20066;-66
2024/03/11 04:20:31;;;;;;;32.42;16.60;;;;;;;10.86;100.00;100015.31;5098066;28;20119;-66
2024/03/11 04:22:58;;;;;;;30.60;16.20;;;;;;;10.63;100.00;99999.13;5098402;28;20305;-64
2024/03/11 04:25:26;;;;;;;28.25;16.15;;;;;;;10.62;100.00;100008.03;5097475;28;20311;-64
2024/03/11 04:27:53;;;;;;;34.58;16.77;;;;;;;10.76;100.00;100017.22;5097720;28;20326;-64
2024/03/11 04:30:21;;;;;;;32.28;16.42;;;;;;;10.83;100.00;100013.81;5097338;28;20036;-64
2024/03/11 04:32:52;;;;;;;32.40;16.08;;;;;;;10.97;100.00;100014.19;5099225;28;20044;-64
2024/03/11 04:35:26;;;;;;;35.63;16.77;;;;;;;10.98;100.00;100024.63;5097442;28;20044;-66
2024/03/11 04:37:59;;;;;;;32.00;16.27;;;;;;;10.99;100.00;100013.06;5099510;28;20274;-66
2024/03/11 04:40:27;;;;;;;27.67;15.10;;;;;;;10.95;100.00;100019.66;5097679;28;20077;-64
2024/03/11 04:42:57;;;;;;;30.10;16.52;;;;;;;10.84;100.00;100012.81;5098848;28;20126;-64
2024/03/11 04:45:23;;;;;;;30.95;15.98;;;;;;;10.80;100.00;100018.56;5097481;28;20378;-65
2024/03/11 04:47:49;;;;;;;28.88;15.07;;;;;;;10.80;100.00;100029.19;5099347;28;20607;-66
2024/03/11 04:50:24;;;;;;;30.35;15.23;;;;;;;10.67;100.00;100015.53;5089732;28;20051;-66
2024/03/11 04:52:50;;;;;;;24.85;14.38;;;;;;;10.25;100.00;100002.94;5098986;28;20040;-64
2024/03/11 04:55:16;;;;;;;28.27;15.70;;;;;;;10.35;100.00;100016.09;5094128;28;20073;-64
2024/03/11 04:57:42;;;;;;;31.23;16.38;;;;;;;10.19;100.00;100016.75;5098914;28;20047;-64
2024/03/11 05:00:08;;;;;;;32.63;16.40;;;;;;;9.96;100.00;100015.56;5088649;28;20346;-66
2024/03/11 05:02:38;;;;;;;30.50;15.52;;;;;;;10.17;100.00;100037.25;5088928;28;20051;-64
2024/03/11 05:05:09;;;;;;;36.78;17.20;;;;;;;10.22;100.00;100019.13;5098990;28;20408;-64
2024/03/11 05:07:35;;;;;;;30.08;15.65;;;;;;;9.64;100.00;100011.63;5093649;28;20047;-65
2024/03/11 05:10:01;;;;;;;31.05;15.35;;;;;;;9.71;100.00;100012.69;5098736;28;20117;-64
2024/03/11 05:12:26;;;;;;;29.98;15.15;;;;;;;9.92;100.00;100004.47;5087960;28;20211;-64
2024/03/11 05:14:52;;;;;;;29.85;14.73;;;;;;;9.49;100.00;99997.25;5098050;28;20097;-64
2024/03/11 05:17:18;;;;;;;29.65;15.50;;;;;;;9.20;100.00;99997.38;5092597;28;20283;-66
2024/03/11 05:19:43;;;;;;;33.35;17.13;;;;;;;9.17;100.00;100006.44;5098251;28;20058;-66
2024/03/11 05:22:09;;;;;;;30.85;16.17;;;;;;;9.18;100.00;100012.56;5097433;28;20028;-64
2024/03/11 05:24:36;;;;;;;35.65;18.35;;;;;;;9.14;100.00;100004.09;5097864;28;20447;-64
2024/03/11 05:27:02;;;;;;;40.85;19.17;;;;;;;8.96;100.00;99998.75;5092830;28;20040;-64
2024/03/11 05:29:28;;;;;;;37.17;20.67;;;;;;;9.28;100.00;100005.41;5096848;28;20040;-66
2024/03/11 05:31:53;;;;;;;47.88;20.23;;;;;;;9.51;100.00;100008.50;5097990;28;20040;-66
2024/03/11 05:34:19;;;;;;;40.47;20.88;;;;;;;9.22;100.00;100012.13;5096866;28;20350;-64
2024/03/11 05:36:45;;;;;;;38.05;19.88;;;;;;;9.57;100.00;100015.84;5098311;28;20028;-64
2024/03/11 05:39:10;;;;;;;40.55;20.02;;;;;;;9.73;100.00;100020.47;5088789;28;20074;-64
2024/03/11 05:41:36;;;;;;;34.50;19.63;;;;;;;9.76;100.00;100020.16;5098142;28;20040;-64
2024/03/11 05:44:03;;;;;;;40.10;19.60;;;;;;;9.99;100.00;100018.75;5092703;28;20032;-66
2024/03/11 05:46:29;;;;;;;33.70;17.52;;;;;;;9.95;100.00;100012.09;5098460;28;20040;-64
2024/03/11 05:48:55;;;;;;;38.83;19.05;;;;;;;9.85;100.00;100025.41;5097129;28;20303;-64
2024/03/11 05:51:21;;;;;;;35.47;19.45;;;;;;;10.01;100.00;100023.88;5097400;28;20028;-64
2024/03/11 05:53:52;;;;;;;40.65;19.50;;;;;;;10.13;100.00;100028.78;5091563;28;20166;-64
2024/03/11 05:56:22;;;;;;;40.58;18.17;;;;;;;10.13;100.00;100012.09;5096582;28;20020;-64
2024/03/11 05:58:50;;;;;;;37.03;17.63;;;;;;;10.09;100.00;100011.56;5096345;28;20120;-66
2024/03/11 06:01:16;;;;;;;36.00;18.40;;;;;;;10.01;100.00;100016.78;5095846;28;20067;-66
2024/03/11 06:03:42;;;;;;;32.25;17.75;;;;;;;10.06;100.00;100016.31;5096257;28;20043;-64
2024/03/11 06:06:08;;;;;;;36.55;17.90;;;;;;;9.88;100.00;100003.09;5095855;28;20032;-64
2024/03/11 06:08:34;;;;;;;37.03;17.13;;;;;;;9.62;100.00;100008.31;5093560;28;20052;-64
2024/03/11 06:11:00;;;;;;;32.13;15.52;;;;;;;9.31;100.00;100004.28;5096427;28;20089;-66
2024/03/11 06:13:25;;;;;;;36.53;17.00;;;;;;;9.48;100.00;100027.31;5096376;28;20044;-64
2024/03/11 06:15:53;;;;;;;39.05;16.77;;;;;;;9.47;100.00;100023.00;5095159;28;20032;-64
2024/03/11 06:18:18;;;;;;;38.03;17.23;;;;;;;9.25;100.00;100021.56;5096823;28;20032;-64
2024/03/11 06:20:44;;;;;;;34.35;17.83;;;;;;;9.22;100.00;100017.41;5094432;28;20408;-64
2024/03/11 06:23:09;;;;;;;35.13;19.20;;;;;;;8.99;100.00;100010.00;5097154;28;20028;-64
2024/03/11 06:25:35;;;;;;;34.25;17.38;;;;;;;8.93;100.00;100004.31;5095020;28;20206;-64
2024/03/11 06:28:01;;;;;;;38.33;18.85;;;;;;;8.76;100.00;100014.81;5096618;28;20048;-64
2024/03/11 06:30:27;;;;;;;34.25;18.48;;;;;;;9.12;100.00;100047.50;5095814;28;20043;-66
2024/03/11 06:32:53;;;;;;;38.25;17.75;;;;;;;9.49;100.00;100050.94;5095746;28;20322;-65
2024/03/11 06:35:19;;;;;;;36.58;17.00;;;;;;;9.54;100.00;100032.84;5095925;28;20043;-64
2024/03/11 06:37:46;;;;;;;32.75;16.55;;;;;;;9.46;100.00;100032.75;5096261;28;20040;-64
2024/03/11 06:40:17;;;;;;;34.97;16.98;;;;;;;9.46;100.00;100037.19;5095462;28;20043;-64
2024/03/11 06:42:48;;;;;;;33.70;15.80;;;;;;;9.20;100.00;100037.03;5095138;28;20044;-66
2024/03/11 06:45:14;;;;;;;31.38;16.70;;;;;;;9.11;100.00;100022.88;5096187;28;20035;-64
2024/03/11 06:47:41;;;;;;;35.05;17.55;;;;;;;9.03;100.00;100027.22;5095413;28;20032;-64
2024/03/11 06:50:07;;;;;;;31.95;17.02;;;;;;;9.01;100.00;100039.75;5095211;28;20295;-64
2024/03/11 06:52:33;;;;;;;33.28;17.08;;;;;;;8.92;100.00;100036.16;5096189;28;20043;-64
2024/03/11 06:54:59;;;;;;;36.45;16.83;;;;;;;8.95;100.00;100051.72;5096476;28;20043;-64
2024/03/11 06:57:24;;;;;;;41.65;18.25;;;;;;;8.82;100.00;100035.38;5094918;28;20085;-64
2024/03/11 06:59:50;;;;;;;38.90;17.40;;;;;;;8.92;100.00;100034.34;5096769;28;20040;-66
2024/03/11 07:02:20;;;;;;;41.70;18.23;;;;;;;9.10;100.00;100036.22;5095768;28;20392;-64
2024/03/11 07:04:46;;;;;;;39.42;18.77;;;;;;;9.00;100.00;100051.28;5096604;28;20271;-64
2024/03/11 07:07:12;;;;;;;37.33;17.23;;;;;;;8.96;100.00;100043.66;5096785;28;20115;-63
2024/03/11 07:09:38;;;;;;;35.25;17.08;;;;;;;8.95;100.00;100047.28;5100318;28;20060;-64
2024/03/11 07:12:03;;;;;;;37.35;16.92;;;;;;;8.77;100.00;100049.00;5099592;28;20039;-66
2024/03/11 07:14:29;;;;;;;35.05;17.70;;;;;;;8.83;100.00;100043.13;5099632;28;20051;-66
2024/03/11 07:16:54;;;;;;;34.25;16.75;;;;;;;8.76;100.00;100043.84;5099015;28;20024;-64
2024/03/11 07:19:20;;;;;;;36.22;18.30;;;;;;;8.73;100.00;100033.59;5099063;28;20368;-64
2024/03/11 07:21:46;;;;;;;36.85;17.92;;;;;;;8.89;100.00;100045.22;5099332;28;20074;-64
2024/03/11 07:24:12;;;;;;;36.92;18.45;;;;;;;8.82;100.00;100059.13;5099966;28;20295;-65
2024/03/11 07:26:38;;;;;;;36.83;18.45;;;;;;;8.68;100.00;100055.13;5098706;28;20361;-66
2024/03/11 07:29:04;;;;;;;33.38;17.50;;;;;;;8.84;100.00;100046.63;5098686;28;20040;-64
2024/03/11 07:31:30;;;;;;;37.63;18.88;;;;;;;8.92;100.00;100037.00;5099774;28;20111;-64
2024/03/11 07:33:55;;;;;;;35.70;18.25;;;;;;;8.98;100.00;100040.88;5098039;28;20032;-64
2024/03/11 07:36:21;;;;;;;36.63;20.77;;;;;;;9.01;100.00;100037.94;5099336;28;20077;-64
2024/03/11 07:38:47;;;;;;;37.53;18.65;;;;;;;8.99;100.00;100044.34;5097082;28;20234;-66
2024/03/11 07:41:13;;;;;;;34.00;15.35;;;;;;;8.98;100.00;100035.59;5099635;28;20099;-65
2024/03/11 07:43:39;;;;;;;31.98;15.65;;;;;;;8.97;100.00;100044.47;5098552;28;20060;-64
2024/03/11 07:46:05;;;;;;;32.40;15.55;;;;;;;8.93;100.00;100040.47;5097594;28;20338;-64
2024/03/11 07:48:30;;;;;;;31.33;15.90;;;;;;;9.01;100.00;100045.03;5098791;28;20123;-64
2024/03/11 07:50:58;;;;;;;38.85;18.27;;;;;;;9.03;100.00;100048.34;5098559;28;20044;-63
2024/03/11 07:53:24;;;;;;;38.70;18.33;;;;;;;9.00;100.00;100053.94;5097349;28;20121;-63
2024/03/11 07:55:50;;;;;;;35.20;16.92;;;;;;;9.09;100.00;100053.06;5097996;28;20047;-64
2024/03/11 07:58:15;;;;;;;38.92;16.80;;;;;;;9.27;100.00;100067.16;5098393;28;20230;-64
2024/03/11 08:00:42;;;;;;;38.28;20.33;;;;;;;9.28;100.00;100071.47;5098658;28;20199;-66
2024/03/11 08:03:09;;;;;;;42.63;20.77;;;;;;;9.31;100.00;100068.53;5097791;28;20031;-66
2024/03/11 08:05:36;;;;;;;36.25;18.20;;;;;;;9.48;100.00;100067.78;5097742;28;20048;-64
2024/03/11 08:08:04;;;;;;;41.85;21.55;;;;;;;9.60;100.00;100069.25;5097754;28;20054;-64
2024/03/11 08:10:30;;;;;;;37.92;18.77;;;;;;;9.64;100.00;100064.50;5098609;28;20036;-65
2024/03/11 08:12:56;;;;;;;38.63;19.33;;;;;;;9.91;100.00;100075.03;5096939;28;20362;-66
2024/03/11 08:15:22;;;;;;;38.00;18.88;;;;;;;10.33;100.00;100076.28;5098450;28;20095;-65
2024/03/11 08:17:50;;;;;;;37.33;18.35;;;;;;;10.62;100.00;100065.47;5095454;28;20043;-64
2024/03/11 08:20:17;;;;;;;37.22;19.73;;;;;;;10.92;100.00;100058.88;5098943;28;20132;-63
2024/03/11 08:22:54;;;;;;;36.25;19.65;;;;;;;11.12;100.00;100052.38;5097171;28;20035;-63
2024/03/11 08:25:22;;;;;;;37.45;19.27;;;;;;;11.10;100.00;100049.03;5098439;28;20229;-63
2024/03/11 08:27:51;;;;;;;33.45;19.15;;;;;;;11.17;100.00;100042.94;5097596;28;20383;-65
2024/03/11 08:30:18;;;;;;;38.65;19.58;;;;;;;11.12;100.00;100045.25;5098527;28;20036;-65
2024/03/11 08:32:47;;;;;;;36.75;19.83;;;;;;;11.28;100.00;100039.19;5096795;28;20131;-63
2024/03/11 08:35:16;;;;;;;41.10;20.88;;;;;;;11.29;100.00;100038.19;5097813;28;20048;-64
2024/03/11 08:37:42;;;;;;;37.97;19.52;;;;;;;11.10;100.00;100039.28;5096515;28;20032;-64
2024/03/11 08:40:10;;;;;;;41.00;21.55;;;;;;;11.29;100.00;100043.50;5097852;28;20213;-63
2024/03/11 08:42:36;;;;;;;36.30;19.92;;;;;;;11.12;100.00;100045.25;5096526;28;20040;-63
2024/03/11 08:45:02;;;;;;;39.03;17.63;;;;;;;11.25;100.00;100036.84;5097620;28;20031;-64
2024/03/11 08:47:28;;;;;;;38.88;19.40;;;;;;;11.47;100.00;100035.47;5098110;28;20226;-65
2024/03/11 08:49:54;;;;;;;37.10;18.65;;;;;;;11.30;100.00;100023.94;5097244;28;20024;-64
2024/03/11 08:52:19;;;;;;;30.17;17.33;;;;;;;11.38;100.00;100029.28;5096489;28;20217;-64
2024/03/11 08:54:45;;;;;;;30.88;16.08;;;;;;;11.08;100.00;100011.28;5095377;28;20044;-65
2024/03/11 08:57:14;;;;;;;29.00;15.90;;;;;;;11.00;100.00;100006.75;5098291;28;20046;-64
2024/03/11 08:59:39;;;;;;;27.58;15.85;;;;;;;11.06;100.00;100006.13;5096807;28;20040;-66
2024/03/11 09:02:09;;;;;;;26.10;14.48;;;;;;;11.16;100.00;100014.78;5098112;28;20225;-66
2024/03/11 09:04:35;;;;;;;26.27;13.73;;;;;;;10.94;100.00;100022.47;5095720;28;20334;-63
2024/03/11 09:07:02;;;;;;;28.00;14.88;;;;;;;10.97;100.00;100022.16;5097767;28;20066;-64
2024/03/11 09:09:28;;;;;;;31.67;15.52;;;;;;;10.94;100.00;100023.28;5096239;28;20067;-64
2024/03/11 09:11:57;;;;;;;32.88;16.65;;;;;;;11.17;100.00;100023.56;5097933;28;20099;-64
2024/03/11 09:14:32;;;;;;;30.15;14.82;;;;;;;11.07;100.00;100025.50;5096568;28;20031;-66
2024/03/11 09:17:00;;;;;;;28.48;14.10;;;;;;;11.27;100.00;100029.56;5097205;28;20039;-64
2024/03/11 09:19:25;;;;;;;29.42;14.95;;;;;;;11.29;100.00;100021.47;5095550;28;20040;-64
2024/03/11 09:21:52;;;;;;;26.88;15.50;;;;;;;11.19;100.00;100014.47;5096661;28;20043;-64
2024/03/11 09:24:18;;;;;;;29.25;14.88;;;;;;;11.19;100.00;100025.06;5097113;28;20040;-64
2024/03/11 09:26:50;;;;;;;30.38;16.38;;;;;;;11.18;100.00;100038.47;5097888;28;20379;-64
2024/03/11 09:29:17;;;;;;;35.88;17.50;;;;;;;11.31;100.00;100024.78;5095994;28;20099;-64
2024/03/11 09:31:42;;;;;;;27.23;16.15;;;;;;;11.45;100.00;100019.72;5095915;28;20067;-64
2024/03/11 09:34:08;;;;;;;30.85;16.52;;;;;;;11.55;100.00;100008.97;5096620;28;20047;-65
2024/03/11 09:36:36;;;;;;;29.92;17.02;;;;;;;11.65;100.00;100020.28;5097115;28;20032;-65
2024/03/11 09:39:05;;;;;;;31.90;18.42;;;;;;;11.56;100.00;100015.94;5097741;28;20038;-63
2024/03/11 09:41:39;;;;;;;36.45;18.17;;;;;;;11.49;100.00;100006.97;5095847;28;20042;-63
2024/03/11 09:44:08;;;;;;;;;;;;;;;11.58;100.00;100006.00;5097825;28;20036;-63
2024/03/11 09:46:34;;;;;;;32.28;16.35;;;;;;;11.77;100.00;100008.41;5094830;28;19920;-65
2024/03/11 09:49:00;;;;;;;33.88;18.85;;;;;;;11.68;100.00;100005.88;5097220;28;20214;-64
2024/03/11 09:51:26;;;;;;;37.28;18.42;;;;;;;11.47;100.00;100001.00;5094680;28;20299;-63
2024/03/11 09:53:54;;;;;;;29.92;15.75;;;;;;;11.34;100.00;100009.38;5096721;28;20040;-63
2024/03/11 09:56:21;;;;;;;33.97;17.92;;;;;;;11.38;100.00;100000.13;5094176;28;20077;-63
2024/03/11 09:58:55;;;;;;;35.90;17.98;;;;;;;11.27;100.00;99991.63;5096618;28;20043;-63
2024/03/11 10:01:25;;;;;;;34.10;17.60;;;;;;;11.40;100.00;99998.13;5094945;28;20087;-64
2024/03/11 10:03:51;;;;;;;29.05;16.63;;;;;;;11.49;100.00;99999.84;5096371;28;20032;-64
2024/03/11 10:06:16;;;;;;;30.35;17.70;;;;;;;11.66;100.00;100005.19;5095859;28;20032;-62
2024/03/11 10:08:45;;;;;;;31.45;16.90;;;;;;;11.83;100.00;99999.78;5096023;28;20063;-65
2024/03/11 10:11:14;;;;;;;34.22;16.67;;;;;;;11.82;100.00;100000.78;5095438;28;20074;-66
2024/03/11 10:13:40;;;;;;;27.70;16.55;;;;;;;12.13;100.00;99998.31;5096051;28;20056;-64
2024/03/11 10:16:17;;;;;;;26.35;15.50;;;;;;;12.09;100.00;99986.38;5095091;28;20040;-64
2024/03/11 10:18:52;;;;;;;31.10;16.65;;;;;;;12.18;100.00;99978.41;5095937;28;20028;-64
2024/03/11 10:21:19;;;;;;;33.40;17.35;;;;;;;12.51;100.00;99979.22;5096017;28;20226;-66
2024/03/11 10:23:45;;;;;;;29.88;15.80;;;;;;;12.33;100.00;99976.75;5095747;28;20361;-67
2024/03/11 10:26:19;;;;;;;25.10;15.40;;;;;;;12.47;100.00;99968.09;5095831;28;20047;-64
2024/03/11 10:28:47;;;;;;;26.73;15.57;;;;;;;12.50;100.00;99967.78;5095729;28;20052;-64
2024/03/11 10:31:45;;;;;;;25.33;15.60;;;;;;;12.58;100.00;99972.25;5096357;28;20039;-64
2024/03/11 10:34:21;;;;;;;28.02;15.35;;;;;;;12.80;100.00;99963.56;5094477;28;20233;-64
2024/03/11 10:36:54;;;;;;;26.02;15.77;;;;;;;12.90;100.00;99971.31;5095777;28;20137;-65
2024/03/11 10:41:52;;;;;;;25.45;14.55;;;;;;;12.69;100.00;99971.88;5098963;28;20043;-64
2024/03/11 10:44:29;;;;;;;23.73;14.13;;;;;;;12.25;100.00;99939.56;5099392;28;20044;-66
2024/03/11 10:47:02;;;;;;;27.70;15.75;;;;;;;12.47;100.00;99955.63;5099504;28;20039;-66
2024/03/11 10:49:28;;;;;;;25.83;15.47;;;;;;;12.77;100.00;99956.75;5099792;28;20203;-65
2024/03/11 10:51:58;;;;;;;26.23;15.90;;;;;;;12.75;100.00;99949.94;5100624;28;20044;-65
2024/03/11 10:54:23;;;;;;;27.58;15.90;;;;;;;12.79;100.00;99941.47;5097409;28;20044;-65
2024/03/11 10:56:55;;;;;;;27.15;15.68;;;;;;;13.05;100.00;99948.34;5100737;28;20092;-65
2024/03/11 10:59:22;;;;;;;25.55;16.38;;;;;;;13.05;100.00;99948.34;5098756;28;20036;-67
2024/03/11 11:01:55;;;;;;;26.60;16.42;;;;;;;13.18;100.00;99948.63;5100394;28;20318;-66
2024/03/11 11:04:22;;;;;;;35.13;18.65;;;;;;;13.38;100.00;99936.56;5097844;28;20054;-65
2024/03/11 11:06:52;;;;;;;32.53;17.48;;;;;;;13.33;100.00;99936.25;5099785;28;20058;-65
2024/03/11 11:09:19;;;;;;;25.50;15.00;;;;;;;13.28;100.00;99935.97;5097571;28;20044;-65